Terminal Aerodrome Forecast
Issued by NWS Tuscon, AZ

Home | Current Version | Previous Version | Text Only | Print | Product List | Glossary On
Versions: 1 2 3 4 5 6 7 8 9 10 11 12 13
000
FTUS45 KTWC 262337
TAFTUS
TAF
KTUS 262337Z 2700/2724 28014KT P6SM SCT090 BKN250
     FM270300 25008KT P6SM SCT090 BKN250
     FM270700 14007KT P6SM FEW100 SCT250
     FM271900 22013G22KT P6SM SCT080 OVC200=

USA.gov is the U.S. government's official web portal to all federal, state and local government web resources and services.